createdAt,value
2019-05-17T00:01:27.039Z,8.76
2019-05-17T00:03:56.402Z,8.78
2019-05-17T00:06:23.514Z,8.76
2019-05-17T00:08:51.000Z,8.54
2019-05-17T00:11:18.499Z,8.66
2019-05-17T00:13:46.605Z,8.62
2019-05-17T00:16:14.231Z,8.65
2019-05-17T00:18:41.724Z,8.76
2019-05-17T00:21:09.221Z,8.89
2019-05-17T00:23:37.467Z,8.75
2019-05-17T00:26:07.134Z,8.82
2019-05-17T00:28:34.685Z,8.72
2019-05-17T00:31:02.193Z,8.84
2019-05-17T00:33:29.672Z,8.89
2019-05-17T00:35:57.172Z,8.81
2019-05-17T00:38:24.666Z,8.67
2019-05-17T00:40:52.939Z,8.62
2019-05-17T00:43:20.419Z,8.56
2019-05-17T00:45:47.960Z,8.55
2019-05-17T00:48:17.211Z,8.64
2019-05-17T00:50:52.203Z,8.55
2019-05-17T00:53:16.257Z,8.44
2019-05-17T00:55:43.316Z,8.44
2019-05-17T00:58:13.696Z,8.43
2019-05-17T01:00:41.197Z,8.50
2019-05-17T01:03:08.688Z,8.54
2019-05-17T01:05:37.150Z,8.62
2019-05-17T01:08:07.387Z,8.65
2019-05-17T01:10:36.879Z,8.64
2019-05-17T01:13:06.539Z,8.48
2019-05-17T01:15:33.424Z,8.51
2019-05-17T01:18:00.996Z,8.56
2019-05-17T01:20:28.500Z,8.44
2019-05-17T01:22:56.705Z,8.38
2019-05-17T01:25:24.393Z,8.51
2019-05-17T01:27:51.889Z,8.49
2019-05-17T01:30:19.679Z,8.49
2019-05-17T01:32:47.172Z,8.55
2019-05-17T01:35:16.874Z,8.51
2019-05-17T01:37:44.071Z,8.34
2019-05-17T01:40:11.557Z,8.34
2019-05-17T01:42:39.073Z,8.59
2019-05-17T01:45:07.396Z,8.54
2019-05-17T01:47:36.884Z,8.57
2019-05-17T01:50:07.397Z,8.46
2019-05-17T01:52:36.762Z,8.49
2019-05-17T01:55:07.161Z,8.39
2019-05-17T01:57:36.775Z,8.39
2019-05-17T02:00:06.628Z,8.41
2019-05-17T02:02:36.609Z,8.39
2019-05-17T02:05:06.476Z,8.36
2019-05-17T02:07:34.080Z,8.23
2019-05-17T02:10:01.694Z,8.25
2019-05-17T02:12:29.448Z,8.37
2019-05-17T02:14:57.548Z,8.26
2019-05-17T02:17:26.541Z,8.37
2019-05-17T02:19:54.206Z,8.36
2019-05-17T02:22:21.707Z,8.32
2019-05-17T02:24:49.199Z,8.27
2019-05-17T02:27:16.709Z,8.32
2019-05-17T02:29:44.187Z,8.40
2019-05-17T02:32:12.780Z,8.27
2019-05-17T02:34:43.013Z,8.30
2019-05-17T02:37:09.812Z,8.21
2019-05-17T02:39:52.256Z,8.15
2019-05-17T02:42:06.526Z,8.13
2019-05-17T02:44:34.096Z,8.16
2019-05-17T02:47:03.099Z,8.14
2019-05-17T02:49:33.074Z,8.11
2019-05-17T02:52:02.971Z,8.04
2019-05-17T02:54:32.533Z,8.03
2019-05-17T02:56:58.552Z,8.05
2019-05-17T02:59:26.035Z,8.17
2019-05-17T03:01:53.541Z,8.21
2019-05-17T03:04:23.610Z,8.10
2019-05-17T03:06:53.120Z,8.11
2019-05-17T03:09:22.656Z,8.23
2019-05-17T03:11:48.715Z,8.20
2019-05-17T03:14:16.189Z,8.22
2019-05-17T03:16:43.706Z,8.22
2019-05-17T03:19:13.123Z,8.25
2019-05-17T03:21:42.887Z,8.17
2019-05-17T03:24:09.645Z,8.19
2019-05-17T03:26:37.983Z,8.22
2019-05-17T03:29:05.472Z,8.29
2019-05-17T03:31:41.444Z,8.19
2019-05-17T03:34:06.630Z,8.23
2019-05-17T03:36:36.374Z,8.11
2019-05-17T03:39:03.108Z,8.09
2019-05-17T03:41:33.828Z,8.20
2019-05-17T03:44:02.923Z,8.18
2019-05-17T03:46:28.661Z,8.09
2019-05-17T03:48:56.160Z,8.08
2019-05-17T03:51:23.658Z,8.18
2019-05-17T03:53:53.115Z,8.22
2019-05-17T03:56:22.437Z,8.09
2019-05-17T03:58:52.795Z,8.02
2019-05-17T04:01:18.815Z,7.96
2019-05-17T04:03:46.316Z,7.93
2019-05-17T04:06:13.809Z,7.85
2019-05-17T04:08:42.509Z,7.87
2019-05-17T04:11:22.302Z,7.88
2019-05-17T04:13:39.415Z,7.99
2019-05-17T04:16:09.263Z,7.97
2019-05-17T04:18:36.411Z,8.10
2019-05-17T04:21:04.063Z,8.01
2019-05-17T04:23:33.992Z,7.91
2019-05-17T04:26:04.151Z,7.82
2019-05-17T04:28:33.497Z,7.83
2019-05-17T04:31:02.645Z,7.84
2019-05-17T04:33:29.169Z,7.89
2019-05-17T04:35:57.435Z,7.78
2019-05-17T04:38:25.000Z,7.66
2019-05-17T04:40:53.708Z,7.72
2019-05-17T04:43:23.108Z,7.68
2019-05-17T04:45:53.614Z,7.70
2019-05-17T04:48:23.305Z,7.74
2019-05-17T04:50:49.654Z,7.77
2019-05-17T04:53:17.166Z,7.82
2019-05-17T04:55:44.767Z,7.81
2019-05-17T04:58:13.725Z,7.93
2019-05-17T05:00:43.038Z,7.93
2019-05-17T05:03:12.749Z,7.99
2019-05-17T05:05:42.762Z,7.98
2019-05-17T05:08:09.242Z,8.03
2019-05-17T05:10:38.569Z,8.02
2019-05-17T05:13:06.292Z,8.08
2019-05-17T05:15:44.033Z,8.13
2019-05-17T05:18:13.245Z,8.01
2019-05-17T05:20:43.133Z,8.18
2019-05-17T05:23:12.290Z,8.15
2019-05-17T05:25:38.579Z,8.13
2019-05-17T05:28:06.072Z,7.99
2019-05-17T05:30:33.575Z,8.07
2019-05-17T05:33:02.000Z,8.09
2019-05-17T05:35:31.670Z,8.12
2019-05-17T05:37:58.880Z,8.07
2019-05-17T05:40:26.373Z,8.02
2019-05-17T05:42:53.886Z,8.03
2019-05-17T05:45:22.513Z,8.07
2019-05-17T05:47:52.181Z,8.10
2019-05-17T05:50:21.814Z,8.08
2019-05-17T05:52:49.000Z,8.04
2019-05-17T05:55:16.765Z,8.01
2019-05-17T05:57:44.277Z,8.00
2019-05-17T06:00:12.816Z,7.98
2019-05-17T06:02:41.881Z,8.01
2019-05-17T06:05:09.705Z,8.09
2019-05-17T06:07:37.212Z,8.07
2019-05-17T06:10:06.574Z,8.03
2019-05-17T06:12:34.060Z,7.98
2019-05-17T06:15:02.815Z,7.95
2019-05-17T06:17:31.774Z,8.02
2019-05-17T06:19:59.420Z,8.04
2019-05-17T06:22:26.913Z,8.05
2019-05-17T06:24:54.437Z,8.06
2019-05-17T06:27:21.930Z,8.16
2019-05-17T06:29:51.378Z,8.13
2019-05-17T06:32:18.645Z,8.18
2019-05-17T06:34:46.141Z,8.18
2019-05-17T06:37:16.439Z,8.24
2019-05-17T06:39:42.885Z,8.25
2019-05-17T06:42:12.071Z,8.28
2019-05-17T06:44:41.725Z,8.32
2019-05-17T06:47:11.709Z,8.36
2019-05-17T06:49:38.508Z,8.48
2019-05-17T06:52:05.993Z,8.38
2019-05-17T06:54:33.489Z,8.44
2019-05-17T06:57:03.324Z,8.56
2019-05-17T06:59:30.212Z,8.69
2019-05-17T07:01:59.670Z,8.68
2019-05-17T07:04:26.926Z,8.64
2019-05-17T07:07:13.153Z,8.70
2019-05-17T07:09:41.005Z,8.79
2019-05-17T07:12:10.382Z,8.73
2019-05-17T07:14:40.108Z,8.82
2019-05-17T07:17:09.724Z,8.78
2019-05-17T07:19:36.896Z,8.80
2019-05-17T07:22:04.389Z,8.78
2019-05-17T07:24:31.898Z,8.75
2019-05-17T07:26:59.393Z,8.79
2019-05-17T07:29:26.905Z,8.79
2019-05-17T07:31:54.683Z,8.72
2019-05-17T07:34:22.189Z,8.81
2019-05-17T07:36:50.372Z,8.91
2019-05-17T07:39:20.308Z,8.99
2019-05-17T07:41:49.323Z,9.00
2019-05-17T07:44:16.683Z,9.08
2019-05-17T07:46:44.180Z,9.07
2019-05-17T07:49:11.728Z,9.11
2019-05-17T07:51:39.587Z,9.08
2019-05-17T07:54:07.321Z,9.07
2019-05-17T07:56:34.815Z,9.21
2019-05-17T07:59:02.769Z,9.31
2019-05-17T08:01:30.275Z,9.46
2019-05-17T08:04:00.381Z,9.61
2019-05-17T08:06:26.999Z,9.68
2019-05-17T08:08:54.488Z,9.76
2019-05-17T08:11:21.992Z,9.89
2019-05-17T08:13:50.474Z,10.00
2019-05-17T08:16:19.652Z,9.93
2019-05-17T08:18:49.541Z,10.00
2019-05-17T08:21:16.482Z,9.94
2019-05-17T08:23:43.978Z,9.96
2019-05-17T08:26:11.475Z,10.02
2019-05-17T08:28:40.334Z,9.97
2019-05-17T08:31:09.933Z,10.03
2019-05-17T08:33:37.528Z,10.20
2019-05-17T08:36:05.135Z,10.49
2019-05-17T08:38:32.629Z,10.50
2019-05-17T08:41:00.811Z,10.54
2019-05-17T08:43:39.805Z,10.54
2019-05-17T08:45:59.318Z,10.52
2019-05-17T08:48:26.969Z,10.55
2019-05-17T08:50:54.471Z,10.51
2019-05-17T08:53:22.209Z,10.62
2019-05-17T08:55:50.227Z,10.73
2019-05-17T08:58:21.284Z,10.80
2019-05-17T09:00:47.116Z,10.80
2019-05-17T09:03:14.911Z,10.91
2019-05-17T09:05:43.093Z,11.07
2019-05-17T09:08:10.763Z,11.21
2019-05-17T09:10:40.666Z,11.26
2019-05-17T09:13:10.301Z,11.34
2019-05-17T09:15:39.952Z,11.38
2019-05-17T09:18:09.620Z,11.48
2019-05-17T09:20:36.400Z,11.39
2019-05-17T09:23:03.907Z,11.37
2019-05-17T09:25:31.660Z,11.47
2019-05-17T09:28:00.712Z,11.51
2019-05-17T09:30:31.173Z,11.51
2019-05-17T09:33:00.303Z,11.51
2019-05-17T09:35:29.882Z,11.63
2019-05-17T09:37:56.911Z,11.64
2019-05-17T09:40:24.408Z,11.49
2019-05-17T09:42:51.921Z,11.44
2019-05-17T09:45:20.183Z,11.21
2019-05-17T09:47:50.328Z,11.18
2019-05-17T09:50:17.121Z,11.10
2019-05-17T09:52:44.713Z,11.14
2019-05-17T09:55:12.203Z,10.98
2019-05-17T09:57:40.993Z,11.20
2019-05-17T10:00:09.894Z,11.27
2019-05-17T10:02:39.923Z,11.47
2019-05-17T10:05:06.960Z,11.63
2019-05-17T10:07:34.464Z,11.77
2019-05-17T10:10:02.805Z,11.85
2019-05-17T10:12:30.308Z,11.92
2019-05-17T10:15:00.274Z,12.05
2019-05-17T10:17:29.309Z,11.97
2019-05-17T10:19:56.297Z,12.00
2019-05-17T10:22:23.804Z,12.30
2019-05-17T10:24:51.300Z,12.41
2019-05-17T10:27:19.653Z,12.48
2019-05-17T10:29:47.280Z,12.41
2019-05-17T10:32:14.894Z,12.53
2019-05-17T10:34:42.387Z,12.61
2019-05-17T10:37:10.505Z,12.91
2019-05-17T10:39:39.461Z,13.18
2019-05-17T10:42:09.894Z,13.16
2019-05-17T10:44:46.286Z,13.02
2019-05-17T10:47:05.884Z,12.97
2019-05-17T10:49:33.384Z,13.26
2019-05-17T10:52:00.897Z,13.26
2019-05-17T10:54:30.100Z,13.26
2019-05-17T10:56:59.734Z,13.11
2019-05-17T10:59:28.524Z,13.07
2019-05-17T11:01:56.036Z,13.32
2019-05-17T11:04:23.531Z,13.60
2019-05-17T11:06:51.027Z,13.63
2019-05-17T11:09:20.555Z,13.48
2019-05-17T11:11:48.276Z,13.37
2019-05-17T11:14:15.780Z,13.38
2019-05-17T11:16:43.287Z,13.43
2019-05-17T11:19:10.789Z,13.40
2019-05-17T11:21:38.303Z,13.34
2019-05-17T11:24:05.886Z,13.05
2019-05-17T11:26:33.448Z,12.85
2019-05-17T11:29:00.969Z,12.58
2019-05-17T11:31:28.468Z,12.72
2019-05-17T11:33:55.977Z,12.81
2019-05-17T11:36:23.476Z,12.95
2019-05-17T11:38:50.995Z,13.03
2019-05-17T11:41:21.521Z,13.08
2019-05-17T11:43:47.769Z,13.28
2019-05-17T11:46:15.270Z,13.33
2019-05-17T11:48:42.773Z,13.51
2019-05-17T11:51:10.272Z,13.55
2019-05-17T11:53:37.776Z,13.37
2019-05-17T11:56:05.286Z,13.40
2019-05-17T11:58:32.858Z,13.15
2019-05-17T12:01:00.354Z,12.99
2019-05-17T12:03:27.860Z,12.91
2019-05-17T12:05:55.364Z,13.06
2019-05-17T12:08:22.867Z,13.18
2019-05-17T12:10:50.448Z,13.44
2019-05-17T12:13:18.150Z,13.25
2019-05-17T12:15:45.939Z,13.26
2019-05-17T12:18:13.516Z,13.30
2019-05-17T12:20:41.025Z,13.45
2019-05-17T12:23:08.528Z,13.51
2019-05-17T12:25:36.057Z,13.42
2019-05-17T12:28:03.662Z,13.42
2019-05-17T12:30:31.156Z,13.52
2019-05-17T12:32:58.654Z,13.41
2019-05-17T12:35:26.173Z,13.44
2019-05-17T12:37:53.676Z,13.72
2019-05-17T12:40:21.184Z,14.02
2019-05-17T12:42:48.675Z,14.27
2019-05-17T12:45:16.184Z,14.34
2019-05-17T12:47:43.684Z,14.65
2019-05-17T12:50:11.188Z,15.02
2019-05-17T12:52:38.734Z,15.04
2019-05-17T12:55:06.511Z,15.18
2019-05-17T12:57:34.343Z,15.05
2019-05-17T13:00:01.848Z,14.87
2019-05-17T13:02:29.351Z,14.72
2019-05-17T13:04:56.860Z,14.50
2019-05-17T13:07:24.356Z,14.55
2019-05-17T13:09:51.882Z,14.50
2019-05-17T13:12:19.360Z,14.71
2019-05-17T13:14:46.880Z,14.60
2019-05-17T13:17:14.384Z,14.55
2019-05-17T13:19:41.891Z,14.49
2019-05-17T13:22:09.406Z,14.45
2019-05-17T13:24:37.001Z,14.26
2019-05-17T13:27:05.340Z,14.24
2019-05-17T13:29:32.844Z,14.24
2019-05-17T13:32:00.343Z,14.27
2019-05-17T13:34:27.833Z,14.32
2019-05-17T13:36:56.108Z,14.10
2019-05-17T13:39:24.372Z,14.04
2019-05-17T13:41:51.884Z,14.16
2019-05-17T13:44:19.381Z,14.42
2019-05-17T13:46:46.896Z,14.56
2019-05-17T13:49:14.384Z,14.65
2019-05-17T13:51:41.889Z,14.54
2019-05-17T13:54:09.393Z,14.27
2019-05-17T13:56:36.899Z,14.25
2019-05-17T13:59:04.696Z,14.18
2019-05-17T14:01:32.873Z,14.13
2019-05-17T14:04:00.373Z,14.37
2019-05-17T14:06:27.882Z,14.52
2019-05-17T14:08:55.380Z,14.74
2019-05-17T14:11:22.950Z,14.48
2019-05-17T14:13:50.774Z,14.56
2019-05-17T14:16:18.287Z,14.61
2019-05-17T14:18:46.204Z,14.59
2019-05-17T14:21:13.713Z,14.61
2019-05-17T14:23:41.212Z,14.78
2019-05-17T14:26:08.824Z,14.85
2019-05-17T14:28:36.331Z,14.94
2019-05-17T14:31:03.832Z,14.79
2019-05-17T14:33:31.330Z,14.93
2019-05-17T14:35:58.840Z,14.91
2019-05-17T14:38:26.333Z,14.86
2019-05-17T14:41:06.725Z,14.80
2019-05-17T14:43:23.063Z,14.83
2019-05-17T14:45:50.567Z,14.71
2019-05-17T14:48:18.069Z,14.64
2019-05-17T14:50:45.575Z,14.57
2019-05-17T14:53:13.073Z,14.49
2019-05-17T14:55:40.570Z,14.55
2019-05-17T14:58:08.073Z,14.53
2019-05-17T15:00:36.344Z,14.57
2019-05-17T15:03:07.297Z,14.45
2019-05-17T15:05:33.069Z,14.45
2019-05-17T15:08:00.632Z,14.43
2019-05-17T15:10:29.024Z,14.38
2019-05-17T15:12:56.540Z,14.22
2019-05-17T15:15:27.242Z,14.25
2019-05-17T15:17:53.345Z,14.22
2019-05-17T15:20:20.876Z,14.01
2019-05-17T15:22:48.409Z,14.00
2019-05-17T15:25:15.961Z,14.04
2019-05-17T15:27:43.476Z,14.09
2019-05-17T15:30:10.965Z,14.05
2019-05-17T15:32:38.476Z,13.89
2019-05-17T15:35:07.041Z,14.03
2019-05-17T15:37:34.558Z,14.07
2019-05-17T15:40:02.165Z,14.14
2019-05-17T15:42:43.291Z,14.26
2019-05-17T15:45:00.617Z,14.35
2019-05-17T15:47:28.133Z,14.52
2019-05-17T15:49:56.402Z,14.47
2019-05-17T15:52:23.917Z,14.54
2019-05-17T15:54:51.410Z,14.56
2019-05-17T15:57:18.942Z,14.55
2019-05-17T15:59:46.448Z,14.62
2019-05-17T16:02:13.956Z,14.61
2019-05-17T16:04:42.220Z,14.63
2019-05-17T16:07:09.729Z,14.67
2019-05-17T16:09:37.216Z,14.60
2019-05-17T16:12:04.726Z,14.62
2019-05-17T16:14:32.244Z,14.48
2019-05-17T16:16:59.807Z,14.50
2019-05-17T16:19:27.315Z,14.41
2019-05-17T16:21:54.909Z,14.44
2019-05-17T16:24:22.573Z,14.29
2019-05-17T16:26:50.069Z,14.29
2019-05-17T16:29:18.349Z,14.40
2019-05-17T16:31:46.617Z,14.41
2019-05-17T16:34:14.120Z,14.45
2019-05-17T16:36:41.704Z,14.50
2019-05-17T16:39:09.209Z,14.54
2019-05-17T16:41:36.712Z,14.56
2019-05-17T16:44:04.308Z,14.58
2019-05-17T16:46:32.136Z,14.42
2019-05-17T16:48:59.631Z,14.39
2019-05-17T16:51:27.131Z,14.47
2019-05-17T16:53:54.643Z,14.46
2019-05-17T16:56:22.141Z,14.53
2019-05-17T16:58:49.644Z,14.64
2019-05-17T17:01:17.174Z,14.75
2019-05-17T17:03:44.929Z,14.66
2019-05-17T17:06:12.648Z,14.66
2019-05-17T17:08:40.316Z,14.76
2019-05-17T17:11:07.821Z,14.65
2019-05-17T17:13:35.324Z,14.63
2019-05-17T17:16:03.146Z,14.52
2019-05-17T17:18:30.873Z,14.33
2019-05-17T17:20:58.368Z,14.37
2019-05-17T17:23:26.157Z,14.37
2019-05-17T17:25:53.741Z,14.26
2019-05-17T17:28:23.639Z,14.27
2019-05-17T17:30:50.609Z,14.29
2019-05-17T17:33:18.141Z,14.28
2019-05-17T17:35:45.632Z,14.34
2019-05-17T17:38:13.128Z,14.24
2019-05-17T17:40:40.632Z,14.22
2019-05-17T17:43:08.128Z,14.23
2019-05-17T17:45:35.637Z,14.21
2019-05-17T17:48:03.127Z,14.13
2019-05-17T17:50:30.635Z,14.19
2019-05-17T17:52:58.123Z,14.09
2019-05-17T17:55:25.630Z,14.07
2019-05-17T17:57:53.132Z,14.02
2019-05-17T18:00:20.981Z,13.96
2019-05-17T18:02:48.479Z,13.95
2019-05-17T18:05:15.983Z,14.02
2019-05-17T18:07:43.496Z,13.87
2019-05-17T18:10:11.009Z,13.81
2019-05-17T18:12:38.506Z,13.82
2019-05-17T18:15:06.563Z,13.76
2019-05-17T18:17:39.141Z,13.74
2019-05-17T18:20:03.441Z,13.63
2019-05-17T18:22:31.037Z,13.55
2019-05-17T18:24:58.545Z,13.45
2019-05-17T18:27:26.046Z,13.49
2019-05-17T18:29:53.612Z,13.41
2019-05-17T18:32:21.111Z,13.39
2019-05-17T18:34:48.634Z,13.41
2019-05-17T18:37:16.114Z,13.28
2019-05-17T18:39:43.621Z,13.30
2019-05-17T18:42:11.118Z,13.22
2019-05-17T18:44:38.620Z,13.16
2019-05-17T18:47:06.118Z,13.14
2019-05-17T18:49:33.756Z,13.17
2019-05-17T18:52:01.257Z,13.12
2019-05-17T18:54:28.752Z,13.13
2019-05-17T18:56:56.262Z,12.92
2019-05-17T18:59:23.778Z,12.90
2019-05-17T19:01:51.280Z,12.80
2019-05-17T19:04:18.779Z,12.81
2019-05-17T19:06:46.288Z,12.81
2019-05-17T19:09:13.780Z,12.78
2019-05-17T19:11:41.288Z,12.73
2019-05-17T19:14:08.788Z,12.70
2019-05-17T19:16:36.300Z,12.46
2019-05-17T19:19:03.809Z,12.30
2019-05-17T19:21:31.323Z,12.18
2019-05-17T19:23:58.816Z,12.14
2019-05-17T19:26:26.316Z,11.75
2019-05-17T19:28:53.821Z,11.63
2019-05-17T19:31:21.329Z,11.35
2019-05-17T19:33:48.824Z,11.11
2019-05-17T19:36:16.338Z,10.94
2019-05-17T19:38:43.828Z,10.91
2019-05-17T19:41:11.385Z,10.76
2019-05-17T19:43:39.113Z,10.84
2019-05-17T19:46:06.635Z,10.98
2019-05-17T19:48:34.198Z,11.24
2019-05-17T19:51:01.871Z,11.24
2019-05-17T19:53:29.437Z,11.30
2019-05-17T19:55:57.070Z,11.29
2019-05-17T19:58:24.640Z,11.45
2019-05-17T20:00:52.216Z,11.43
2019-05-17T20:03:19.708Z,11.38
2019-05-17T20:05:47.201Z,11.38
2019-05-17T20:08:14.721Z,11.49
2019-05-17T20:10:42.292Z,11.48
2019-05-17T20:13:10.097Z,11.34
2019-05-17T20:15:37.600Z,11.32
2019-05-17T20:18:05.129Z,11.25
2019-05-17T20:20:32.981Z,11.13
2019-05-17T20:23:00.497Z,11.02
2019-05-17T20:25:28.014Z,10.92
2019-05-17T20:27:55.657Z,10.87
2019-05-17T20:30:23.140Z,10.77
2019-05-17T20:32:50.729Z,10.83
2019-05-17T20:35:18.228Z,10.65
2019-05-17T20:37:45.736Z,10.62
2019-05-17T20:40:13.235Z,10.69
2019-05-17T20:42:40.745Z,10.90
2019-05-17T20:45:08.238Z,10.72
2019-05-17T20:47:35.743Z,10.79
2019-05-17T20:50:04.509Z,11.12
2019-05-17T20:52:32.012Z,10.60
2019-05-17T20:54:59.576Z,10.72
2019-05-17T20:57:27.416Z,10.52
2019-05-17T20:59:54.912Z,10.49
2019-05-17T21:02:22.740Z,10.80
2019-05-17T21:04:50.904Z,11.12
2019-05-17T21:07:18.687Z,11.48
2019-05-17T21:09:46.188Z,11.71
2019-05-17T21:12:13.688Z,11.56
2019-05-17T21:14:41.184Z,11.22
2019-05-17T21:17:08.688Z,10.94
2019-05-17T21:19:36.207Z,10.93
2019-05-17T21:22:04.481Z,11.01
2019-05-17T21:24:32.062Z,10.73
2019-05-17T21:26:59.705Z,10.75
2019-05-17T21:29:27.555Z,10.61
2019-05-17T21:31:55.053Z,10.50
2019-05-17T21:34:22.569Z,10.35
2019-05-17T21:36:50.060Z,10.37
2019-05-17T21:39:17.651Z,10.32
2019-05-17T21:41:47.905Z,10.21
2019-05-17T21:44:15.413Z,10.39
2019-05-17T21:46:42.913Z,10.24
2019-05-17T21:49:10.421Z,10.27
2019-05-17T21:51:38.156Z,10.23
2019-05-17T21:54:05.664Z,10.25
2019-05-17T21:56:33.160Z,10.19
2019-05-17T21:59:00.662Z,10.35
2019-05-17T22:01:28.629Z,10.35
2019-05-17T22:03:56.135Z,10.49
2019-05-17T22:06:23.648Z,10.44
2019-05-17T22:08:51.149Z,10.27
2019-05-17T22:11:18.664Z,10.26
2019-05-17T22:13:46.172Z,10.30
2019-05-17T22:16:19.698Z,10.30
2019-05-17T22:18:43.465Z,10.26
2019-05-17T22:21:10.961Z,10.41
2019-05-17T22:23:38.538Z,10.30
2019-05-17T22:26:06.027Z,10.14
2019-05-17T22:28:33.532Z,10.03
2019-05-17T22:31:01.036Z,10.04
2019-05-17T22:33:28.707Z,9.98
2019-05-17T22:35:56.199Z,9.92
2019-05-17T22:38:23.688Z,9.86
2019-05-17T22:40:51.187Z,9.96
2019-05-17T22:43:18.692Z,9.82
2019-05-17T22:45:46.536Z,9.85
2019-05-17T22:48:14.048Z,10.09
2019-05-17T22:50:41.908Z,10.00
2019-05-17T22:53:09.407Z,9.90
2019-05-17T22:55:36.902Z,9.90
2019-05-17T22:58:04.400Z,9.79
2019-05-17T23:00:31.892Z,9.79
2019-05-17T23:02:59.389Z,9.70
2019-05-17T23:05:26.885Z,9.70
2019-05-17T23:07:54.376Z,9.63
2019-05-17T23:10:21.876Z,9.69
2019-05-17T23:12:49.364Z,9.64
2019-05-17T23:15:17.107Z,9.71
2019-05-17T23:17:44.652Z,9.51
2019-05-17T23:20:12.153Z,9.66
2019-05-17T23:22:39.644Z,9.75
2019-05-17T23:25:07.148Z,9.67
2019-05-17T23:27:34.964Z,9.80
2019-05-17T23:30:02.469Z,9.77
2019-05-17T23:32:29.964Z,9.78
2019-05-17T23:34:57.470Z,9.80
2019-05-17T23:37:24.961Z,9.74
2019-05-17T23:39:52.459Z,9.77
2019-05-17T23:42:19.949Z,9.89
2019-05-17T23:44:47.444Z,9.91
2019-05-17T23:47:14.936Z,9.96
2019-05-17T23:49:42.442Z,9.89
2019-05-17T23:52:09.932Z,9.91
2019-05-17T23:54:37.431Z,9.85
2019-05-17T23:57:04.949Z,9.85
2019-05-17T23:59:32.450Z,9.82
